OBBI/BAH METAR and TAF weather

Enter ICAO airport designator
Station Type Date Time Source
OBBI METAR 2020/06/05 13:00 UTC NOAA

OBBI 051300Z 32020KT CAVOK 36/20 Q1001 NOSIG


Station Type Date Time Source
OBBI Decoded METAR 2020/06/05 13:00 UTC NOAA

Bahrain International Airport , Bahrain (OBBI) 26-16N 050-39E 2M
Jun 05, 2020 - 09:00 AM EDT / 2020.06.05 1300 UTC
Wind: from the NW (320 degrees) at 23 MPH (20 KT):0
Visibility: greater than 7 mile(s):0
Temperature: 96 F (36 C)
Heat index: 100.2 F (37.9 C):1
Dew Point: 68 F (20 C)
Relative Humidity: 39%
Pressure (altimeter): 29.56 in. Hg (1001 hPa)
ob: OBBI 051300Z 32020KT CAVOK 36/20 Q1001 NOSIG
cycle: 13

Station Type Date Time Source
OBBI TAF 2020/06/05 12:09 UTC NOAA

TAF TAF OBBI 051100Z 0512/0618 33020G30KT CAVOK

Example: see airport list